< Typhoon 197219 1972 Season Typhoon 197221 >
Typhoon 197220 (HELEN)
General InformationTrack Information on Google Maps || NewsDisaster Info.ResourceGoogle EarthGE AnimationAtom FeedGeoJSON
Detalied Best Track (Time Zone = UTC)
Year Month Day Hour Lat. Long. Pressure (hPa) Wind (kt) Class Image Chart
1972 9 10 06 14.2 144.8 1006 0 2 -- Chart
1972 9 10 12 14.0 144.0 1006 0 2 -- Chart
1972 9 10 18 13.6 143.0 1006 0 2 -- Chart
1972 9 11 00 13.0 142.0 1006 0 2 -- Chart
1972 9 11 06 12.5 141.5 1006 0 2 -- Chart
1972 9 11 12 12.0 141.0 1004 0 2 -- Chart
1972 9 11 18 12.4 139.7 1004 0 2 -- Chart
1972 9 12 00 13.0 138.9 1004 0 2 -- Chart
1972 9 12 06 13.6 138.2 1004 0 2 -- Chart
1972 9 12 12 14.3 137.6 1004 0 2 -- Chart
1972 9 12 18 14.8 137.1 996 0 2 -- Chart
1972 9 13 00 15.5 136.6 990 0 2 -- Chart
1972 9 13 06 16.0 136.1 980 0 9 -- Chart
1972 9 13 12 16.7 135.5 975 0 9 -- Chart
1972 9 13 18 17.5 134.8 975 0 9 -- Chart
1972 9 14 00 18.4 134.1 975 0 9 -- Chart
1972 9 14 06 19.4 133.1 970 0 9 -- Chart
1972 9 14 12 20.0 132.4 965 0 9 -- Chart
1972 9 14 18 21.2 131.9 960 0 9 -- Chart
1972 9 15 00 22.0 131.7 960 0 9 -- Chart
1972 9 15 06 23.6 131.6 960 0 9 -- Chart
1972 9 15 12 25.5 132.1 955 0 9 -- Chart
1972 9 15 18 27.3 132.5 960 0 9 -- Chart
1972 9 16 00 29.3 133.3 960 0 9 -- Chart
1972 9 16 06 31.9 134.8 960 0 9 -- Chart
1972 9 16 12 34.4 136.6 960 0 9 -- Chart
1972 9 16 18 37.2 137.5 980 0 9 -- Chart
1972 9 17 00 39.3 138.7 982 0 9 -- Chart
1972 9 17 06 41.7 139.7 980 0 9 -- Chart
1972 9 17 12 43.1 139.7 978 0 9 -- Chart
1972 9 17 18 43.3 139.3 978 0 9 -- Chart
1972 9 18 00 43.3 138.8 980 0 9 -- Chart
1972 9 18 06 43.2 138.3 980 0 9 -- Chart
1972 9 18 12 43.0 138.0 980 0 9 -- Chart
1972 9 18 18 42.8 138.0 984 0 9 -- Chart
1972 9 19 00 42.5 138.0 990 0 6 -- Chart
1972 9 19 06 42.3 138.5 990 0 6 -- Chart
1972 9 19 12 42.2 139.2 998 0 6 -- Chart
1972 9 19 18 42.0 140.0 998 0 6 -- Chart
1972 9 20 00 42.2 141.0 1000 0 6 -- Chart
1972 9 20 06 42.5 142.0 1002 0 6 -- Chart
1972 9 20 12 42.8 143.5 1006 0 6 -- Chart
1972 9 20 18 43.4 145.0 1008 0 6 -- Chart
1972 9 21 00 44.0 147.0 1012 0 6 -- Chart
Japan Meteorological Agency Best Track Data | Correction Date : 1989-06-01
< Typhoon 197219 1972 Season Typhoon 197221 >

Help